createdAt,value
2018-06-21T00:01:34.372Z,4.03
2018-06-21T00:04:02.941Z,4.17
2018-06-21T00:06:31.527Z,4.50
2018-06-21T00:09:00.052Z,4.40
2018-06-21T00:11:28.615Z,4.50
2018-06-21T00:13:57.156Z,4.97
2018-06-21T00:16:25.744Z,5.00
2018-06-21T00:18:54.302Z,4.40
2018-06-21T00:21:22.864Z,3.90
2018-06-21T00:23:51.421Z,4.30
2018-06-21T00:26:20.012Z,4.37
2018-06-21T00:28:48.546Z,4.90
2018-06-21T00:31:17.160Z,4.40
2018-06-21T00:33:45.731Z,4.93
2018-06-21T00:36:14.304Z,4.23
2018-06-21T00:38:43.028Z,4.30
2018-06-21T00:41:11.791Z,4.40
2018-06-21T00:43:40.441Z,4.63
2018-06-21T00:46:08.980Z,5.20
2018-06-21T00:48:37.583Z,4.60
2018-06-21T00:51:06.192Z,5.43
2018-06-21T00:53:34.861Z,5.30
2018-06-21T00:56:19.168Z,4.90
2018-06-21T00:58:48.547Z,5.07
2018-06-21T01:01:18.100Z,5.20
2018-06-21T01:03:47.375Z,5.23
2018-06-21T01:06:16.085Z,5.13
2018-06-21T01:08:44.684Z,5.97
2018-06-21T01:11:13.227Z,5.07
2018-06-21T01:13:41.851Z,5.80
2018-06-21T01:16:10.411Z,6.70
2018-06-21T01:18:38.967Z,6.73
2018-06-21T01:21:07.513Z,7.23
2018-06-21T01:23:36.124Z,7.00
2018-06-21T01:26:04.736Z,7.20
2018-06-21T01:28:33.319Z,7.03
2018-06-21T01:31:01.904Z,6.60
2018-06-21T01:33:30.448Z,6.40
2018-06-21T01:35:59.023Z,6.37
2018-06-21T01:38:27.664Z,5.57
2018-06-21T01:40:56.292Z,6.30
2018-06-21T01:43:24.854Z,7.00
2018-06-21T01:45:53.509Z,6.30
2018-06-21T01:48:22.069Z,6.10
2018-06-21T01:50:50.661Z,6.10
2018-06-21T01:53:19.176Z,6.40
2018-06-21T01:55:47.799Z,5.97
2018-06-21T01:58:16.348Z,6.40
2018-06-21T02:00:44.910Z,7.10
2018-06-21T02:03:13.467Z,6.30
2018-06-21T02:05:42.062Z,6.87
2018-06-21T02:08:10.612Z,6.57
2018-06-21T02:10:39.160Z,6.93
2018-06-21T02:13:07.783Z,6.87
2018-06-21T02:15:36.356Z,6.07
2018-06-21T02:18:04.901Z,6.70
2018-06-21T02:20:33.509Z,7.23
2018-06-21T02:23:02.081Z,7.43
2018-06-21T02:25:30.712Z,6.60
2018-06-21T02:27:59.344Z,7.20
2018-06-21T02:30:27.911Z,6.67
2018-06-21T02:32:56.457Z,6.70
2018-06-21T02:35:25.036Z,6.10
2018-06-21T02:37:53.563Z,6.60
2018-06-21T02:40:22.889Z,6.53
2018-06-21T02:42:51.590Z,6.90
2018-06-21T02:45:20.307Z,6.63
2018-06-21T02:47:48.846Z,5.40
2018-06-21T02:50:17.628Z,7.30
2018-06-21T02:52:46.224Z,6.67
2018-06-21T02:55:14.775Z,6.30
2018-06-21T02:57:43.329Z,7.03
2018-06-21T03:00:11.907Z,6.80
2018-06-21T03:02:40.488Z,6.87
2018-06-21T03:05:09.045Z,6.50
2018-06-21T03:07:37.664Z,7.03
2018-06-21T03:10:06.169Z,6.50
2018-06-21T03:12:34.743Z,7.33
2018-06-21T03:15:03.256Z,6.97
2018-06-21T03:17:31.972Z,6.47
2018-06-21T03:20:00.524Z,6.67
2018-06-21T03:22:29.116Z,6.70
2018-06-21T03:24:57.668Z,7.23
2018-06-21T03:27:26.232Z,6.83
2018-06-21T03:29:54.775Z,7.23
2018-06-21T03:32:23.422Z,7.67
2018-06-21T03:34:51.964Z,8.17
2018-06-21T03:37:20.579Z,7.07
2018-06-21T03:39:49.164Z,7.10
2018-06-21T03:42:17.820Z,7.23
2018-06-21T03:44:46.409Z,7.43
2018-06-21T03:47:15.056Z,6.60
2018-06-21T03:49:43.620Z,6.87
2018-06-21T03:52:12.169Z,6.53
2018-06-21T03:54:40.776Z,6.20
2018-06-21T03:57:09.301Z,6.53
2018-06-21T03:59:38.136Z,5.73
2018-06-21T04:02:06.888Z,6.07
2018-06-21T04:04:35.505Z,10.60
2018-06-21T04:07:04.037Z,13.50
2018-06-21T04:09:32.652Z,6.63
2018-06-21T04:12:01.272Z,7.00
2018-06-21T04:14:29.839Z,5.40
2018-06-21T04:16:58.378Z,6.27
2018-06-21T04:19:27.016Z,6.40
2018-06-21T04:21:55.520Z,6.00
2018-06-21T04:24:24.081Z,6.70
2018-06-21T04:26:52.670Z,5.47
2018-06-21T04:29:21.224Z,6.70
2018-06-21T04:31:49.764Z,6.70
2018-06-21T04:34:18.364Z,5.87
2018-06-21T04:36:46.944Z,6.80
2018-06-21T04:39:15.552Z,7.13
2018-06-21T04:41:44.080Z,7.57
2018-06-21T04:44:12.729Z,6.87
2018-06-21T04:46:41.314Z,6.90
2018-06-21T04:49:09.985Z,6.37
2018-06-21T04:51:38.650Z,6.70
2018-06-21T04:54:07.445Z,7.37
2018-06-21T04:56:36.124Z,6.30
2018-06-21T04:59:04.837Z,6.63
2018-06-21T05:01:34.021Z,8.03
2018-06-21T05:04:02.539Z,7.73
2018-06-21T05:06:31.200Z,8.87
2018-06-21T05:09:00.145Z,9.07
2018-06-21T05:11:28.862Z,8.60
2018-06-21T05:13:57.540Z,7.80
2018-06-21T05:16:26.366Z,8.80
2018-06-21T05:18:55.192Z,9.60
2018-06-21T05:21:23.930Z,8.27
2018-06-21T05:23:52.649Z,8.30
2018-06-21T05:26:22.000Z,9.53
2018-06-21T05:28:50.832Z,9.73
2018-06-21T05:31:19.701Z,10.47
2018-06-21T05:33:48.259Z,13.13
2018-06-21T05:36:16.981Z,12.90
2018-06-21T05:38:45.860Z,13.17
2018-06-21T05:41:14.521Z,13.17
2018-06-21T05:43:43.147Z,13.87
2018-06-21T05:46:11.784Z,11.90
2018-06-21T05:48:40.600Z,12.23
2018-06-21T05:51:09.481Z,11.10
2018-06-21T05:53:38.320Z,13.00
2018-06-21T05:56:07.093Z,14.00
2018-06-21T05:58:35.861Z,12.87
2018-06-21T06:01:04.470Z,14.53
2018-06-21T06:03:33.154Z,13.63
2018-06-21T06:06:01.827Z,15.63
2018-06-21T06:08:30.921Z,14.70
2018-06-21T06:10:59.673Z,14.80
2018-06-21T06:13:28.434Z,13.70
2018-06-21T06:15:57.186Z,16.43
2018-06-21T06:18:26.042Z,17.90
2018-06-21T06:20:54.613Z,17.40
2018-06-21T06:23:23.295Z,18.37
2018-06-21T06:25:51.993Z,19.00
2018-06-21T06:28:20.729Z,21.67
2018-06-21T06:30:49.267Z,21.30
2018-06-21T06:33:17.927Z,22.20
2018-06-21T06:35:46.489Z,22.70
2018-06-21T06:38:15.239Z,23.10
2018-06-21T06:40:43.983Z,22.10
2018-06-21T06:43:12.658Z,20.93
2018-06-21T06:45:41.263Z,19.97
2018-06-21T06:48:10.005Z,19.20
2018-06-21T06:50:38.629Z,19.10
2018-06-21T06:53:07.241Z,19.60
2018-06-21T06:55:35.964Z,18.30
2018-06-21T06:58:04.550Z,17.40
2018-06-21T07:00:33.284Z,19.87
2018-06-21T07:03:01.989Z,18.37
2018-06-21T07:05:30.665Z,19.07
2018-06-21T07:07:59.418Z,18.03
2018-06-21T07:10:28.389Z,16.90
2018-06-21T07:12:57.190Z,17.50
2018-06-21T07:15:26.005Z,17.10
2018-06-21T07:17:54.687Z,15.30
2018-06-21T07:20:23.402Z,15.13
2018-06-21T07:22:51.948Z,15.70
2018-06-21T07:25:20.970Z,16.07
2018-06-21T07:27:49.668Z,15.40
2018-06-21T07:30:18.353Z,14.87
2018-06-21T07:32:47.389Z,15.20
2018-06-21T07:35:16.103Z,14.40
2018-06-21T07:37:44.937Z,13.17
2018-06-21T07:40:13.628Z,13.20
2018-06-21T07:42:42.285Z,13.13
2018-06-21T07:45:10.889Z,15.70
2018-06-21T07:47:39.501Z,12.80
2018-06-21T07:50:08.140Z,12.80
2018-06-21T07:52:36.776Z,12.57
2018-06-21T07:55:05.407Z,12.07
2018-06-21T07:57:34.183Z,13.30
2018-06-21T08:00:02.916Z,13.83
2018-06-21T08:02:31.604Z,14.63
2018-06-21T08:05:00.305Z,13.60
2018-06-21T08:07:28.996Z,14.60
2018-06-21T08:09:57.610Z,13.27
2018-06-21T08:12:26.321Z,14.63
2018-06-21T08:14:55.047Z,17.37
2018-06-21T08:17:23.685Z,14.20
2018-06-21T08:19:52.249Z,8.10
2018-06-21T08:22:20.865Z,6.30
2018-06-21T08:24:49.482Z,5.00
2018-06-21T08:27:18.089Z,4.80
2018-06-21T08:29:47.534Z,3.90
2018-06-21T08:32:16.189Z,4.30
2018-06-21T08:34:44.767Z,4.20
2018-06-21T08:37:13.368Z,4.17
2018-06-21T08:39:41.973Z,4.30
2018-06-21T08:42:10.557Z,4.87
2018-06-21T08:44:39.201Z,4.57
2018-06-21T08:47:07.800Z,3.83
2018-06-21T08:49:36.704Z,4.30
2018-06-21T08:52:05.362Z,4.00
2018-06-21T08:54:34.066Z,3.47
2018-06-21T08:57:02.714Z,3.83
2018-06-21T08:59:31.369Z,4.60
2018-06-21T09:01:59.997Z,3.33
2018-06-21T09:04:28.660Z,3.63
2018-06-21T09:06:57.544Z,4.10
2018-06-21T10:03:31.856Z,2.97
2018-06-21T10:06:00.451Z,2.90
2018-06-21T10:08:29.432Z,2.83
2018-06-21T10:10:58.216Z,3.13
2018-06-21T10:13:26.891Z,2.93
2018-06-21T10:15:55.674Z,3.27
2018-06-21T10:18:24.233Z,2.67
2018-06-21T10:20:52.845Z,3.03
2018-06-21T10:23:21.397Z,3.20
2018-06-21T10:25:50.097Z,3.40
2018-06-21T10:28:18.661Z,2.33
2018-06-21T10:30:47.276Z,2.60
2018-06-21T10:33:15.879Z,2.73
2018-06-21T10:35:44.521Z,2.23
2018-06-21T10:38:13.107Z,2.90
2018-06-21T10:40:41.802Z,2.17
2018-06-21T10:43:10.427Z,1.83
2018-06-21T10:45:38.980Z,2.30
2018-06-21T10:48:07.716Z,2.53
2018-06-21T10:50:36.306Z,2.53
2018-06-21T10:53:05.026Z,2.10
2018-06-21T10:55:33.710Z,2.20
2018-06-21T10:58:02.693Z,1.73
2018-06-21T11:00:31.482Z,2.70
2018-06-21T11:03:00.316Z,3.03
2018-06-21T11:05:28.941Z,2.60
2018-06-21T11:07:57.609Z,2.67
2018-06-21T11:10:26.317Z,2.47
2018-06-21T11:12:55.179Z,3.07
2018-06-21T11:15:23.985Z,2.00
2018-06-21T11:17:52.590Z,1.73
2018-06-21T11:20:21.665Z,2.00
2018-06-21T11:22:50.487Z,1.70
2018-06-21T11:25:19.108Z,1.63
2018-06-21T11:27:47.819Z,1.97
2018-06-21T11:30:16.477Z,1.90
2018-06-21T11:32:45.116Z,1.70
2018-06-21T11:35:14.064Z,2.87
2018-06-21T11:37:42.733Z,2.43
2018-06-21T11:40:11.449Z,1.57
2018-06-21T11:42:40.310Z,2.07
2018-06-21T11:45:09.061Z,1.77
2018-06-21T11:47:37.591Z,1.27
2018-06-21T11:50:06.351Z,1.30
2018-06-21T11:52:34.896Z,2.10
2018-06-21T11:55:03.484Z,1.47
2018-06-21T11:57:32.241Z,1.40
2018-06-21T12:00:00.805Z,1.67
2018-06-21T12:02:29.614Z,2.20
2018-06-21T12:04:58.256Z,1.27
2018-06-21T12:07:27.296Z,1.43
2018-06-21T12:09:55.853Z,1.20
2018-06-21T12:12:24.471Z,1.30
2018-06-21T12:14:53.128Z,1.23
2018-06-21T12:17:22.001Z,1.37
2018-06-21T12:19:50.681Z,1.17
2018-06-21T12:22:19.536Z,1.40
2018-06-21T12:24:48.101Z,1.37
2018-06-21T12:27:16.725Z,1.30
2018-06-21T12:29:46.353Z,1.40
2018-06-21T12:32:15.044Z,1.50
2018-06-21T12:34:43.656Z,2.33
2018-06-21T12:37:12.376Z,1.47
2018-06-21T12:39:40.981Z,1.50
2018-06-21T12:42:09.732Z,1.20
2018-06-21T12:44:38.601Z,1.27
2018-06-21T12:47:07.216Z,1.53
2018-06-21T12:49:36.034Z,1.47
2018-06-21T12:52:04.724Z,1.20
2018-06-21T12:54:33.601Z,1.20
2018-06-21T12:57:02.355Z,1.83
2018-06-21T12:59:31.079Z,1.20
2018-06-21T13:01:59.651Z,1.50
2018-06-21T13:04:28.468Z,1.17
2018-06-21T13:06:57.189Z,0.90
2018-06-21T13:09:36.810Z,1.00
2018-06-21T13:12:32.454Z,1.50
2018-06-21T13:15:01.095Z,1.23
2018-06-21T13:17:30.790Z,1.43
2018-06-21T13:20:00.717Z,1.10
2018-06-21T13:22:29.685Z,1.97
2018-06-21T13:24:58.729Z,1.73
2018-06-21T13:27:27.429Z,1.87
2018-06-21T13:29:56.134Z,1.83
2018-06-21T13:32:25.070Z,1.50
2018-06-21T13:34:53.922Z,2.10
2018-06-21T13:37:22.539Z,1.30
2018-06-21T13:39:51.120Z,2.87
2018-06-21T13:42:19.708Z,1.47
2018-06-21T13:44:48.608Z,1.43
2018-06-21T13:47:17.466Z,1.27
2018-06-21T13:49:46.478Z,1.70
2018-06-21T13:52:15.046Z,1.10
2018-06-21T13:54:44.097Z,4.03
2018-06-21T13:57:12.767Z,2.13
2018-06-21T13:59:41.408Z,1.90
2018-06-21T14:02:10.327Z,2.03
2018-06-21T14:04:39.060Z,1.67
2018-06-21T14:07:07.758Z,1.57
2018-06-21T14:09:36.504Z,1.40
2018-06-21T14:12:05.084Z,1.77
2018-06-21T14:14:33.765Z,1.43
2018-06-21T14:17:02.389Z,1.90
2018-06-21T14:19:31.229Z,1.83
2018-06-21T14:21:59.819Z,1.27
2018-06-21T14:24:28.609Z,2.13
2018-06-21T14:26:57.225Z,1.60
2018-06-21T14:29:25.846Z,1.30
2018-06-21T14:31:54.470Z,1.57
2018-06-21T14:34:23.065Z,1.93
2018-06-21T14:36:51.656Z,1.40
2018-06-21T14:39:20.419Z,1.13
2018-06-21T14:41:49.188Z,1.40
2018-06-21T14:44:17.830Z,2.87
2018-06-21T14:46:46.522Z,1.63
2018-06-21T14:49:15.348Z,1.17
2018-06-21T14:51:43.992Z,1.27
2018-06-21T14:54:12.711Z,8.80
2018-06-21T14:56:41.609Z,2.00
2018-06-21T14:59:10.248Z,2.23
2018-06-21T15:01:38.862Z,2.20
2018-06-21T15:04:07.562Z,1.37
2018-06-21T15:06:36.185Z,1.60
2018-06-21T15:09:09.762Z,1.30
2018-06-21T15:11:38.423Z,1.80
2018-06-21T15:14:08.021Z,1.27
2018-06-21T15:16:36.977Z,2.10
2018-06-21T15:19:05.702Z,1.30
2018-06-21T15:21:34.488Z,1.23
2018-06-21T15:24:03.152Z,1.50
2018-06-21T15:26:31.674Z,1.50
2018-06-21T15:29:00.336Z,1.87
2018-06-21T15:31:28.951Z,1.40
2018-06-21T15:33:57.545Z,1.70
2018-06-21T15:36:26.106Z,1.50
2018-06-21T15:38:57.861Z,1.93
2018-06-21T15:41:28.160Z,1.10
2018-06-21T15:43:56.906Z,1.77
2018-06-21T15:46:25.630Z,1.67
2018-06-21T15:48:54.375Z,1.43
2018-06-21T15:51:22.987Z,1.90
2018-06-21T15:53:51.616Z,1.43
2018-06-21T15:56:20.412Z,1.83
2018-06-21T15:58:49.021Z,3.23
2018-06-21T16:01:17.641Z,3.93
2018-06-21T16:03:46.476Z,1.63
2018-06-21T16:06:15.033Z,1.33
2018-06-21T16:08:43.672Z,1.33
2018-06-21T16:11:12.320Z,1.60
2018-06-21T16:13:41.004Z,1.53
2018-06-21T16:16:10.350Z,1.20
2018-06-21T16:18:39.018Z,1.30
2018-06-21T16:21:07.761Z,1.00
2018-06-21T16:23:36.361Z,1.50
2018-06-21T16:26:05.100Z,1.40
2018-06-21T16:28:33.749Z,1.60
2018-06-21T16:31:02.534Z,1.40
2018-06-21T16:33:31.192Z,2.13
2018-06-21T16:35:59.833Z,1.40
2018-06-21T16:38:28.450Z,1.80
2018-06-21T16:40:57.300Z,1.70
2018-06-21T16:43:26.157Z,1.10
2018-06-21T16:45:54.837Z,1.80
2018-06-21T16:48:23.508Z,1.63
2018-06-21T16:50:52.358Z,1.33
2018-06-21T16:53:20.953Z,2.03
2018-06-21T16:55:49.604Z,1.00
2018-06-21T16:58:18.286Z,1.47
2018-06-21T17:00:47.150Z,1.50
2018-06-21T17:03:15.788Z,1.20
2018-06-21T17:05:44.450Z,1.47
2018-06-21T17:08:13.456Z,1.00
2018-06-21T17:10:42.133Z,1.67
2018-06-21T17:13:10.947Z,1.67
2018-06-21T17:15:39.606Z,1.20
2018-06-21T17:18:08.276Z,1.10
2018-06-21T17:20:37.042Z,1.30
2018-06-21T17:23:05.721Z,1.40
2018-06-21T17:25:34.607Z,1.43
2018-06-21T17:28:03.341Z,1.13
2018-06-21T17:30:31.939Z,1.10
2018-06-21T17:33:00.653Z,1.60
2018-06-21T17:35:29.210Z,1.40
2018-06-21T17:37:58.025Z,1.30
2018-06-21T17:40:26.773Z,2.13
2018-06-21T17:42:55.622Z,2.40
2018-06-21T17:45:24.356Z,2.40
2018-06-21T17:47:53.032Z,1.67
2018-06-21T17:50:21.934Z,1.70
2018-06-21T17:52:50.672Z,1.10
2018-06-21T17:55:19.305Z,2.67
2018-06-21T17:57:48.039Z,1.50
2018-06-21T18:00:16.877Z,1.37
2018-06-21T18:02:45.528Z,2.33
2018-06-21T18:05:14.333Z,1.30
2018-06-21T18:07:43.020Z,1.80
2018-06-21T18:10:11.741Z,1.10
2018-06-21T18:12:40.457Z,1.40
2018-06-21T18:15:09.313Z,1.10
2018-06-21T18:17:38.064Z,1.63
2018-06-21T18:20:06.845Z,1.30
2018-06-21T18:22:35.645Z,1.37
2018-06-21T18:25:06.507Z,1.30
2018-06-21T18:27:35.279Z,1.30
2018-06-21T18:30:04.179Z,1.07
2018-06-21T18:32:32.828Z,2.60
2018-06-21T18:35:01.540Z,1.90
2018-06-21T18:37:30.248Z,1.80
2018-06-21T18:39:58.893Z,1.50
2018-06-21T18:42:27.728Z,1.53
2018-06-21T18:44:56.475Z,2.00
2018-06-21T18:47:25.150Z,1.60
2018-06-21T18:49:53.833Z,1.60
2018-06-21T18:52:22.589Z,1.87
2018-06-21T18:54:51.307Z,1.60
2018-06-21T18:57:20.013Z,2.07
2018-06-21T18:59:48.713Z,1.90
2018-06-21T19:02:17.388Z,1.50
2018-06-21T19:04:46.218Z,2.83
2018-06-21T19:07:20.303Z,1.20
2018-06-21T19:09:54.381Z,1.50
2018-06-21T19:12:23.065Z,1.73
2018-06-21T19:14:51.700Z,2.57
2018-06-21T19:17:20.347Z,1.10
2018-06-21T19:19:49.029Z,1.30
2018-06-21T19:22:17.709Z,1.83
2018-06-21T19:24:46.440Z,1.40
2018-06-21T19:27:15.157Z,1.40
2018-06-21T19:29:43.848Z,1.27
2018-06-21T19:32:12.498Z,1.80
2018-06-21T19:34:41.124Z,1.67
2018-06-21T19:37:09.965Z,2.97
2018-06-21T19:39:38.705Z,1.77
2018-06-21T19:42:07.352Z,1.60
2018-06-21T19:44:35.981Z,1.50
2018-06-21T19:47:04.653Z,2.03
2018-06-21T19:49:33.490Z,1.50
2018-06-21T19:52:02.269Z,1.47
2018-06-21T19:54:30.945Z,1.47
2018-06-21T19:56:59.604Z,1.70
2018-06-21T19:59:28.260Z,1.50
2018-06-21T20:01:56.938Z,1.70
2018-06-21T20:04:25.543Z,1.90
2018-06-21T20:06:54.233Z,1.80
2018-06-21T20:09:22.858Z,2.53
2018-06-21T20:11:51.551Z,1.93
2018-06-21T20:14:20.219Z,2.20
2018-06-21T20:16:48.808Z,2.50
2018-06-21T20:19:18.792Z,2.70
2018-06-21T20:21:47.366Z,1.70
2018-06-21T20:24:16.080Z,4.10
2018-06-21T20:26:44.848Z,2.13
2018-06-21T20:29:20.104Z,2.73
2018-06-21T20:31:49.128Z,2.03
2018-06-21T20:34:17.832Z,1.77
2018-06-21T20:36:46.479Z,2.20
2018-06-21T20:39:15.157Z,2.00
2018-06-21T20:41:43.738Z,2.30
2018-06-21T20:44:12.779Z,1.57
2018-06-21T20:46:41.424Z,2.40
2018-06-21T20:49:10.088Z,1.83
2018-06-21T20:51:38.773Z,2.20
2018-06-21T20:54:07.420Z,3.07
2018-06-21T20:56:36.053Z,1.90
2018-06-21T20:59:04.724Z,2.13
2018-06-21T21:01:33.336Z,2.23
2018-06-21T21:04:02.050Z,1.80
2018-06-21T21:06:30.654Z,2.23
2018-06-21T21:08:59.364Z,2.67
2018-06-21T21:11:28.044Z,2.00
2018-06-21T21:13:56.676Z,1.60
2018-06-21T21:16:25.173Z,1.83
2018-06-21T21:18:53.838Z,2.93
2018-06-21T21:21:22.412Z,1.73
2018-06-21T21:23:50.976Z,2.07
2018-06-21T21:26:19.565Z,2.10
2018-06-21T21:28:48.367Z,1.53
2018-06-21T21:31:17.006Z,2.43
2018-06-21T21:33:45.563Z,2.07
2018-06-21T21:36:14.420Z,1.73
2018-06-21T21:38:42.974Z,1.33
2018-06-21T21:41:11.701Z,2.27
2018-06-21T21:43:40.289Z,1.90
2018-06-21T21:46:08.829Z,2.30
2018-06-21T21:48:37.355Z,1.80
2018-06-21T21:51:05.916Z,1.33
2018-06-21T21:53:34.473Z,2.43
2018-06-21T21:56:03.146Z,2.10
2018-06-21T21:58:31.730Z,2.27
2018-06-21T22:01:00.445Z,1.30
2018-06-21T22:03:29.075Z,1.60
2018-06-21T22:05:57.652Z,1.80
2018-06-21T22:08:26.236Z,1.80
2018-06-21T22:10:54.833Z,1.70
2018-06-21T22:13:23.372Z,1.43
2018-06-21T22:15:51.952Z,1.93
2018-06-21T22:18:20.531Z,1.80
2018-06-21T22:20:49.249Z,2.10
2018-06-21T22:23:17.914Z,1.67
2018-06-21T22:25:46.780Z,2.40
2018-06-21T22:28:15.333Z,3.00
2018-06-21T22:30:43.932Z,1.70
2018-06-21T22:33:12.544Z,1.30
2018-06-21T22:35:41.353Z,1.53
2018-06-21T22:38:10.183Z,1.50
2018-06-21T22:40:38.861Z,1.70
2018-06-21T22:43:07.510Z,1.53
2018-06-21T22:45:36.029Z,2.00
2018-06-21T22:48:04.641Z,1.40
2018-06-21T22:50:33.371Z,1.37
2018-06-21T22:53:02.000Z,1.87
2018-06-21T22:55:30.636Z,2.17
2018-06-21T22:57:59.345Z,1.10
2018-06-21T23:00:28.114Z,2.07
2018-06-21T23:02:56.950Z,1.70
2018-06-21T23:05:25.619Z,1.97
2018-06-21T23:07:54.176Z,1.70
2018-06-21T23:10:23.010Z,2.23
2018-06-21T23:12:51.660Z,1.50
2018-06-21T23:15:20.449Z,3.13
2018-06-21T23:17:48.983Z,1.67
2018-06-21T23:20:17.559Z,2.00
2018-06-21T23:22:46.120Z,2.03
2018-06-21T23:25:14.677Z,2.80
2018-06-21T23:27:43.181Z,2.30
2018-06-21T23:30:11.793Z,2.47
2018-06-21T23:32:40.504Z,2.70
2018-06-21T23:35:09.389Z,2.10
2018-06-21T23:37:37.956Z,2.03
2018-06-21T23:40:06.808Z,2.33
2018-06-21T23:42:35.369Z,1.70
2018-06-21T23:45:04.084Z,1.87
2018-06-21T23:47:32.648Z,2.17
2018-06-21T23:50:01.488Z,2.17
2018-06-21T23:52:30.013Z,2.60
2018-06-21T23:54:58.794Z,1.93
2018-06-21T23:57:27.457Z,1.90
2018-06-21T23:59:56.092Z,1.87
